sensor_id;sensor_type;location;lat;lon;timestamp;P1;durP1;ratioP1;P2;durP2;ratioP2
20935;SDS011;10627;54.514;18.532;2023-04-06T00:01:31;11.83;;;6.30;;
20935;SDS011;10627;54.514;18.532;2023-04-06T00:06:32;11.77;;;6.40;;
20935;SDS011;10627;54.514;18.532;2023-04-06T00:11:33;14.00;;;5.70;;
20935;SDS011;10627;54.514;18.532;2023-04-06T00:16:34;13.33;;;5.73;;
20935;SDS011;10627;54.514;18.532;2023-04-06T00:21:35;10.97;;;5.93;;
20935;SDS011;10627;54.514;18.532;2023-04-06T00:26:36;15.10;;;6.27;;
20935;SDS011;10627;54.514;18.532;2023-04-06T00:31:37;15.10;;;6.27;;
20935;SDS011;10627;54.514;18.532;2023-04-06T00:36:37;14.27;;;6.73;;
20935;SDS011;10627;54.514;18.532;2023-04-06T00:41:42;17.10;;;5.90;;
20935;SDS011;10627;54.514;18.532;2023-04-06T00:46:51;16.30;;;5.83;;
20935;SDS011;10627;54.514;18.532;2023-04-06T00:51:52;15.13;;;6.17;;
20935;SDS011;10627;54.514;18.532;2023-04-06T00:56:56;19.63;;;6.20;;
20935;SDS011;10627;54.514;18.532;2023-04-06T01:01:59;16.73;;;6.40;;
20935;SDS011;10627;54.514;18.532;2023-04-06T01:07:09;24.53;;;6.73;;
20935;SDS011;10627;54.514;18.532;2023-04-06T01:12:18;26.40;;;7.40;;
20935;SDS011;10627;54.514;18.532;2023-04-06T01:17:19;22.10;;;7.37;;
20935;SDS011;10627;54.514;18.532;2023-04-06T01:22:20;17.40;;;7.07;;
20935;SDS011;10627;54.514;18.532;2023-04-06T01:27:33;21.20;;;7.00;;
20935;SDS011;10627;54.514;18.532;2023-04-06T01:32:56;28.23;;;8.90;;
20935;SDS011;10627;54.514;18.532;2023-04-06T01:38:16;19.30;;;7.13;;
20935;SDS011;10627;54.514;18.532;2023-04-06T01:43:18;20.47;;;6.67;;
20935;SDS011;10627;54.514;18.532;2023-04-06T01:48:53;12.50;;;5.93;;
20935;SDS011;10627;54.514;18.532;2023-04-06T01:54:08;18.10;;;5.77;;
20935;SDS011;10627;54.514;18.532;2023-04-06T01:59:32;18.73;;;6.33;;
20935;SDS011;10627;54.514;18.532;2023-04-06T02:04:36;14.90;;;5.80;;
20935;SDS011;10627;54.514;18.532;2023-04-06T02:09:46;11.80;;;5.67;;
20935;SDS011;10627;54.514;18.532;2023-04-06T02:14:56;12.67;;;5.83;;
20935;SDS011;10627;54.514;18.532;2023-04-06T02:19:57;14.23;;;5.93;;
20935;SDS011;10627;54.514;18.532;2023-04-06T02:24:58;14.13;;;6.33;;
20935;SDS011;10627;54.514;18.532;2023-04-06T02:30:00;14.30;;;5.30;;
20935;SDS011;10627;54.514;18.532;2023-04-06T02:35:01;11.00;;;5.77;;
20935;SDS011;10627;54.514;18.532;2023-04-06T02:40:03;12.47;;;5.90;;
20935;SDS011;10627;54.514;18.532;2023-04-06T02:45:06;13.30;;;5.20;;
20935;SDS011;10627;54.514;18.532;2023-04-06T02:50:13;19.20;;;5.83;;
20935;SDS011;10627;54.514;18.532;2023-04-06T02:55:22;11.37;;;5.43;;
20935;SDS011;10627;54.514;18.532;2023-04-06T03:00:24;21.40;;;6.03;;
20935;SDS011;10627;54.514;18.532;2023-04-06T03:05:25;13.27;;;5.63;;
20935;SDS011;10627;54.514;18.532;2023-04-06T03:10:26;11.57;;;5.57;;
20935;SDS011;10627;54.514;18.532;2023-04-06T03:15:27;11.53;;;5.70;;
20935;SDS011;10627;54.514;18.532;2023-04-06T03:20:37;15.17;;;6.03;;
20935;SDS011;10627;54.514;18.532;2023-04-06T03:25:38;11.27;;;5.00;;
20935;SDS011;10627;54.514;18.532;2023-04-06T03:30:42;15.57;;;5.83;;
20935;SDS011;10627;54.514;18.532;2023-04-06T03:35:44;19.80;;;6.00;;
20935;SDS011;10627;54.514;18.532;2023-04-06T03:40:46;14.37;;;5.63;;
20935;SDS011;10627;54.514;18.532;2023-04-06T03:45:46;11.23;;;4.83;;
20935;SDS011;10627;54.514;18.532;2023-04-06T03:50:48;15.93;;;5.63;;
20935;SDS011;10627;54.514;18.532;2023-04-06T03:55:49;13.17;;;5.10;;
20935;SDS011;10627;54.514;18.532;2023-04-06T04:00:50;12.73;;;4.87;;
20935;SDS011;10627;54.514;18.532;2023-04-06T04:05:51;22.33;;;6.00;;
20935;SDS011;10627;54.514;18.532;2023-04-06T04:10:52;13.53;;;5.23;;
20935;SDS011;10627;54.514;18.532;2023-04-06T04:15:53;15.97;;;4.83;;
20935;SDS011;10627;54.514;18.532;2023-04-06T04:20:54;14.40;;;5.43;;
20935;SDS011;10627;54.514;18.532;2023-04-06T04:25:57;11.63;;;4.53;;
20935;SDS011;10627;54.514;18.532;2023-04-06T04:30:57;8.73;;;4.47;;
20935;SDS011;10627;54.514;18.532;2023-04-06T04:35:58;14.50;;;4.93;;
20935;SDS011;10627;54.514;18.532;2023-04-06T04:41:05;11.00;;;4.17;;
20935;SDS011;10627;54.514;18.532;2023-04-06T04:46:09;9.23;;;4.33;;
20935;SDS011;10627;54.514;18.532;2023-04-06T04:51:17;8.17;;;4.23;;
20935;SDS011;10627;54.514;18.532;2023-04-06T04:56:42;14.27;;;3.87;;
20935;SDS011;10627;54.514;18.532;2023-04-06T05:02:00;12.47;;;4.37;;
20935;SDS011;10627;54.514;18.532;2023-04-06T05:07:10;13.00;;;4.53;;
20935;SDS011;10627;54.514;18.532;2023-04-06T05:12:13;17.77;;;6.00;;
20935;SDS011;10627;54.514;18.532;2023-04-06T05:17:28;18.20;;;5.23;;
20935;SDS011;10627;54.514;18.532;2023-04-06T05:22:30;12.53;;;5.20;;
20935;SDS011;10627;54.514;18.532;2023-04-06T05:27:37;16.27;;;5.97;;
20935;SDS011;10627;54.514;18.532;2023-04-06T05:32:43;12.70;;;4.77;;
20935;SDS011;10627;54.514;18.532;2023-04-06T05:37:45;12.33;;;5.03;;
20935;SDS011;10627;54.514;18.532;2023-04-06T05:42:46;15.03;;;7.40;;
20935;SDS011;10627;54.514;18.532;2023-04-06T05:47:47;22.27;;;6.97;;
20935;SDS011;10627;54.514;18.532;2023-04-06T05:52:59;24.80;;;7.10;;
20935;SDS011;10627;54.514;18.532;2023-04-06T05:58:07;23.57;;;8.50;;
20935;SDS011;10627;54.514;18.532;2023-04-06T06:03:10;29.40;;;9.70;;
20935;SDS011;10627;54.514;18.532;2023-04-06T06:08:13;32.83;;;9.90;;
20935;SDS011;10627;54.514;18.532;2023-04-06T06:13:15;23.43;;;8.53;;
20935;SDS011;10627;54.514;18.532;2023-04-06T06:18:22;21.67;;;8.37;;
20935;SDS011;10627;54.514;18.532;2023-04-06T06:23:27;22.90;;;7.87;;
20935;SDS011;10627;54.514;18.532;2023-04-06T06:28:28;19.50;;;6.80;;
20935;SDS011;10627;54.514;18.532;2023-04-06T06:33:30;19.57;;;6.80;;
20935;SDS011;10627;54.514;18.532;2023-04-06T06:38:32;18.67;;;6.90;;
20935;SDS011;10627;54.514;18.532;2023-04-06T06:43:33;20.73;;;6.13;;
20935;SDS011;10627;54.514;18.532;2023-04-06T06:48:41;12.23;;;5.23;;
20935;SDS011;10627;54.514;18.532;2023-04-06T06:53:42;26.17;;;7.07;;
20935;SDS011;10627;54.514;18.532;2023-04-06T06:58:43;19.93;;;5.93;;
20935;SDS011;10627;54.514;18.532;2023-04-06T07:03:43;15.27;;;7.53;;
20935;SDS011;10627;54.514;18.532;2023-04-06T07:08:45;24.87;;;8.47;;
20935;SDS011;10627;54.514;18.532;2023-04-06T07:13:45;16.90;;;6.47;;
20935;SDS011;10627;54.514;18.532;2023-04-06T07:18:46;32.87;;;6.33;;
20935;SDS011;10627;54.514;18.532;2023-04-06T07:23:48;9.30;;;4.33;;
20935;SDS011;10627;54.514;18.532;2023-04-06T07:28:51;12.03;;;5.87;;
20935;SDS011;10627;54.514;18.532;2023-04-06T07:33:53;18.73;;;6.47;;
20935;SDS011;10627;54.514;18.532;2023-04-06T07:38:56;8.40;;;4.30;;
20935;SDS011;10627;54.514;18.532;2023-04-06T07:43:58;9.10;;;3.67;;
20935;SDS011;10627;54.514;18.532;2023-04-06T07:48:59;10.13;;;3.67;;
20935;SDS011;10627;54.514;18.532;2023-04-06T07:54:04;7.30;;;3.20;;
20935;SDS011;10627;54.514;18.532;2023-04-06T07:59:05;5.43;;;3.65;;
20935;SDS011;10627;54.514;18.532;2023-04-06T08:04:06;7.30;;;3.33;;
20935;SDS011;10627;54.514;18.532;2023-04-06T08:09:07;4.60;;;2.57;;
20935;SDS011;10627;54.514;18.532;2023-04-06T08:14:08;7.53;;;2.27;;
20935;SDS011;10627;54.514;18.532;2023-04-06T08:19:09;3.42;;;1.80;;
20935;SDS011;10627;54.514;18.532;2023-04-06T08:24:10;4.18;;;2.30;;
20935;SDS011;10627;54.514;18.532;2023-04-06T08:29:11;5.28;;;1.67;;
20935;SDS011;10627;54.514;18.532;2023-04-06T08:34:11;4.97;;;1.63;;
20935;SDS011;10627;54.514;18.532;2023-04-06T08:39:13;3.03;;;1.40;;
20935;SDS011;10627;54.514;18.532;2023-04-06T08:44:13;1.85;;;1.33;;
20935;SDS011;10627;54.514;18.532;2023-04-06T08:49:14;3.78;;;1.50;;
20935;SDS011;10627;54.514;18.532;2023-04-06T08:54:17;2.70;;;1.27;;
20935;SDS011;10627;54.514;18.532;2023-04-06T08:59:24;1.85;;;1.17;;
20935;SDS011;10627;54.514;18.532;2023-04-06T09:04:26;2.05;;;1.40;;
20935;SDS011;10627;54.514;18.532;2023-04-06T09:09:27;3.90;;;2.10;;
20935;SDS011;10627;54.514;18.532;2023-04-06T09:14:37;3.58;;;1.48;;
20935;SDS011;10627;54.514;18.532;2023-04-06T09:19:46;2.58;;;1.80;;
20935;SDS011;10627;54.514;18.532;2023-04-06T09:24:53;4.20;;;2.08;;
20935;SDS011;10627;54.514;18.532;2023-04-06T09:30:02;6.93;;;1.75;;
20935;SDS011;10627;54.514;18.532;2023-04-06T09:35:18;5.30;;;2.08;;
20935;SDS011;10627;54.514;18.532;2023-04-06T09:40:22;3.05;;;1.50;;
20935;SDS011;10627;54.514;18.532;2023-04-06T09:45:23;6.22;;;3.20;;
20935;SDS011;10627;54.514;18.532;2023-04-06T09:50:24;6.88;;;1.65;;
20935;SDS011;10627;54.514;18.532;2023-04-06T09:55:29;1.77;;;1.50;;
20935;SDS011;10627;54.514;18.532;2023-04-06T10:00:32;6.32;;;2.35;;
20935;SDS011;10627;54.514;18.532;2023-04-06T10:05:43;5.10;;;1.10;;
20935;SDS011;10627;54.514;18.532;2023-04-06T10:10:47;2.80;;;1.60;;
20935;SDS011;10627;54.514;18.532;2023-04-06T10:15:49;4.00;;;3.25;;
20935;SDS011;10627;54.514;18.532;2023-04-06T10:31:01;4.05;;;1.30;;
20935;SDS011;10627;54.514;18.532;2023-04-06T10:36:36;5.93;;;1.95;;
20935;SDS011;10627;54.514;18.532;2023-04-06T10:41:44;10.70;;;1.48;;
20935;SDS011;10627;54.514;18.532;2023-04-06T10:46:58;3.05;;;1.50;;
20935;SDS011;10627;54.514;18.532;2023-04-06T10:52:08;10.95;;;0.90;;
20935;SDS011;10627;54.514;18.532;2023-04-06T10:57:10;9.70;;;1.23;;
20935;SDS011;10627;54.514;18.532;2023-04-06T11:02:18;11.93;;;0.95;;
20935;SDS011;10627;54.514;18.532;2023-04-06T11:07:24;1.85;;;0.77;;
20935;SDS011;10627;54.514;18.532;2023-04-06T11:12:31;3.42;;;1.00;;
20935;SDS011;10627;54.514;18.532;2023-04-06T11:17:33;4.63;;;1.05;;
20935;SDS011;10627;54.514;18.532;2023-04-06T11:22:34;5.05;;;0.60;;
20935;SDS011;10627;54.514;18.532;2023-04-06T11:27:35;1.67;;;1.20;;
20935;SDS011;10627;54.514;18.532;2023-04-06T11:32:42;4.50;;;1.13;;
20935;SDS011;10627;54.514;18.532;2023-04-06T11:37:44;3.30;;;0.90;;
20935;SDS011;10627;54.514;18.532;2023-04-06T11:42:45;4.22;;;1.08;;
20935;SDS011;10627;54.514;18.532;2023-04-06T11:47:57;1.15;;;0.65;;
20935;SDS011;10627;54.514;18.532;2023-04-06T11:53:00;3.75;;;1.40;;
20935;SDS011;10627;54.514;18.532;2023-04-06T11:58:02;2.63;;;1.38;;
20935;SDS011;10627;54.514;18.532;2023-04-06T12:03:03;3.05;;;0.60;;
20935;SDS011;10627;54.514;18.532;2023-04-06T12:08:04;2.75;;;0.80;;
20935;SDS011;10627;54.514;18.532;2023-04-06T12:13:05;2.33;;;0.60;;
20935;SDS011;10627;54.514;18.532;2023-04-06T12:18:06;4.40;;;0.80;;
20935;SDS011;10627;54.514;18.532;2023-04-06T12:23:07;1.17;;;0.63;;
20935;SDS011;10627;54.514;18.532;2023-04-06T12:28:07;1.77;;;0.68;;
20935;SDS011;10627;54.514;18.532;2023-04-06T12:33:08;1.83;;;0.60;;
20935;SDS011;10627;54.514;18.532;2023-04-06T12:38:08;1.70;;;0.70;;
20935;SDS011;10627;54.514;18.532;2023-04-06T12:43:09;4.00;;;0.90;;
20935;SDS011;10627;54.514;18.532;2023-04-06T12:48:11;5.13;;;0.70;;
20935;SDS011;10627;54.514;18.532;2023-04-06T12:53:11;1.55;;;0.75;;
20935;SDS011;10627;54.514;18.532;2023-04-06T12:58:12;7.72;;;0.60;;
20935;SDS011;10627;54.514;18.532;2023-04-06T13:03:13;0.68;;;0.52;;
20935;SDS011;10627;54.514;18.532;2023-04-06T13:08:14;1.30;;;0.82;;
20935;SDS011;10627;54.514;18.532;2023-04-06T13:13:16;4.05;;;1.42;;
20935;SDS011;10627;54.514;18.532;2023-04-06T13:18:17;1.65;;;0.50;;
20935;SDS011;10627;54.514;18.532;2023-04-06T13:23:18;1.13;;;0.50;;
20935;SDS011;10627;54.514;18.532;2023-04-06T13:28:19;2.90;;;0.63;;
20935;SDS011;10627;54.514;18.532;2023-04-06T13:33:20;4.43;;;0.98;;
20935;SDS011;10627;54.514;18.532;2023-04-06T13:38:21;1.15;;;0.65;;
20935;SDS011;10627;54.514;18.532;2023-04-06T13:43:24;3.13;;;1.05;;
20935;SDS011;10627;54.514;18.532;2023-04-06T13:48:26;4.10;;;2.05;;
20935;SDS011;10627;54.514;18.532;2023-04-06T13:53:27;2.88;;;2.00;;
20935;SDS011;10627;54.514;18.532;2023-04-06T13:58:28;3.97;;;0.60;;
20935;SDS011;10627;54.514;18.532;2023-04-06T14:03:29;4.68;;;1.20;;
20935;SDS011;10627;54.514;18.532;2023-04-06T14:08:30;3.97;;;1.40;;
20935;SDS011;10627;54.514;18.532;2023-04-06T14:13:31;4.80;;;1.10;;
20935;SDS011;10627;54.514;18.532;2023-04-06T14:18:32;1.65;;;1.00;;
20935;SDS011;10627;54.514;18.532;2023-04-06T14:23:34;5.32;;;1.00;;
20935;SDS011;10627;54.514;18.532;2023-04-06T14:28:35;2.05;;;1.10;;
20935;SDS011;10627;54.514;18.532;2023-04-06T14:33:36;6.13;;;1.50;;
20935;SDS011;10627;54.514;18.532;2023-04-06T14:38:37;2.90;;;1.10;;
20935;SDS011;10627;54.514;18.532;2023-04-06T14:43:39;6.05;;;1.33;;
20935;SDS011;10627;54.514;18.532;2023-04-06T14:48:40;2.65;;;1.02;;
20935;SDS011;10627;54.514;18.532;2023-04-06T14:53:41;1.10;;;1.00;;
20935;SDS011;10627;54.514;18.532;2023-04-06T14:58:42;1.60;;;1.10;;
20935;SDS011;10627;54.514;18.532;2023-04-06T15:03:43;4.10;;;1.10;;
20935;SDS011;10627;54.514;18.532;2023-04-06T15:08:44;2.27;;;1.10;;
20935;SDS011;10627;54.514;18.532;2023-04-06T15:13:45;2.73;;;1.27;;
20935;SDS011;10627;54.514;18.532;2023-04-06T15:18:46;4.07;;;1.80;;
20935;SDS011;10627;54.514;18.532;2023-04-06T15:23:47;2.93;;;1.87;;
20935;SDS011;10627;54.514;18.532;2023-04-06T15:28:48;6.10;;;1.70;;
20935;SDS011;10627;54.514;18.532;2023-04-06T15:33:49;3.07;;;1.63;;
20935;SDS011;10627;54.514;18.532;2023-04-06T15:38:50;8.63;;;2.17;;
20935;SDS011;10627;54.514;18.532;2023-04-06T15:43:51;3.97;;;1.20;;
20935;SDS011;10627;54.514;18.532;2023-04-06T15:48:53;3.73;;;1.57;;
20935;SDS011;10627;54.514;18.532;2023-04-06T15:53:55;7.40;;;1.63;;
20935;SDS011;10627;54.514;18.532;2023-04-06T15:58:57;2.77;;;1.37;;
20935;SDS011;10627;54.514;18.532;2023-04-06T16:03:59;1.80;;;1.23;;
20935;SDS011;10627;54.514;18.532;2023-04-06T16:09:00;6.30;;;1.70;;
20935;SDS011;10627;54.514;18.532;2023-04-06T16:14:01;3.10;;;1.60;;
20935;SDS011;10627;54.514;18.532;2023-04-06T16:19:02;3.33;;;1.90;;
20935;SDS011;10627;54.514;18.532;2023-04-06T16:24:03;5.97;;;2.27;;
20935;SDS011;10627;54.514;18.532;2023-04-06T16:29:05;2.67;;;1.80;;
20935;SDS011;10627;54.514;18.532;2023-04-06T16:34:07;4.13;;;2.00;;
20935;SDS011;10627;54.514;18.532;2023-04-06T16:39:08;3.73;;;1.70;;
20935;SDS011;10627;54.514;18.532;2023-04-06T16:44:09;3.70;;;1.90;;
20935;SDS011;10627;54.514;18.532;2023-04-06T16:49:11;5.13;;;1.87;;
20935;SDS011;10627;54.514;18.532;2023-04-06T16:54:12;5.73;;;2.70;;
20935;SDS011;10627;54.514;18.532;2023-04-06T16:59:13;5.87;;;2.80;;
20935;SDS011;10627;54.514;18.532;2023-04-06T17:04:14;7.50;;;2.70;;
20935;SDS011;10627;54.514;18.532;2023-04-06T17:09:16;5.43;;;2.80;;
20935;SDS011;10627;54.514;18.532;2023-04-06T17:14:17;5.20;;;2.80;;
20935;SDS011;10627;54.514;18.532;2023-04-06T17:19:18;6.17;;;2.97;;
20935;SDS011;10627;54.514;18.532;2023-04-06T17:24:20;5.07;;;3.10;;
20935;SDS011;10627;54.514;18.532;2023-04-06T17:29:20;4.67;;;2.73;;
20935;SDS011;10627;54.514;18.532;2023-04-06T17:34:21;6.93;;;2.93;;
20935;SDS011;10627;54.514;18.532;2023-04-06T17:39:22;9.97;;;3.57;;
20935;SDS011;10627;54.514;18.532;2023-04-06T17:44:23;13.30;;;6.93;;
20935;SDS011;10627;54.514;18.532;2023-04-06T17:49:24;8.38;;;4.18;;
20935;SDS011;10627;54.514;18.532;2023-04-06T17:54:24;8.00;;;3.03;;
20935;SDS011;10627;54.514;18.532;2023-04-06T17:59:26;5.77;;;2.97;;
20935;SDS011;10627;54.514;18.532;2023-04-06T18:04:26;8.47;;;4.33;;
20935;SDS011;10627;54.514;18.532;2023-04-06T18:09:31;10.90;;;3.37;;
20935;SDS011;10627;54.514;18.532;2023-04-06T18:14:32;7.23;;;3.10;;
20935;SDS011;10627;54.514;18.532;2023-04-06T18:19:33;13.20;;;3.10;;
20935;SDS011;10627;54.514;18.532;2023-04-06T18:24:37;5.37;;;2.83;;
20935;SDS011;10627;54.514;18.532;2023-04-06T18:29:39;6.33;;;2.90;;
20935;SDS011;10627;54.514;18.532;2023-04-06T18:34:40;9.43;;;2.97;;
20935;SDS011;10627;54.514;18.532;2023-04-06T18:39:41;6.97;;;3.13;;
20935;SDS011;10627;54.514;18.532;2023-04-06T18:44:42;3.47;;;2.10;;
20935;SDS011;10627;54.514;18.532;2023-04-06T18:49:43;8.07;;;2.60;;
20935;SDS011;10627;54.514;18.532;2023-04-06T18:54:43;6.30;;;2.60;;
20935;SDS011;10627;54.514;18.532;2023-04-06T18:59:44;6.93;;;2.90;;
20935;SDS011;10627;54.514;18.532;2023-04-06T19:04:45;7.83;;;2.87;;
20935;SDS011;10627;54.514;18.532;2023-04-06T19:09:46;4.57;;;2.80;;
20935;SDS011;10627;54.514;18.532;2023-04-06T19:14:47;9.70;;;2.67;;
20935;SDS011;10627;54.514;18.532;2023-04-06T19:19:52;4.23;;;2.00;;
20935;SDS011;10627;54.514;18.532;2023-04-06T19:24:57;4.60;;;2.10;;
20935;SDS011;10627;54.514;18.532;2023-04-06T19:29:58;7.83;;;2.30;;
20935;SDS011;10627;54.514;18.532;2023-04-06T19:34:59;5.77;;;2.00;;
20935;SDS011;10627;54.514;18.532;2023-04-06T19:40:02;3.67;;;2.10;;
20935;SDS011;10627;54.514;18.532;2023-04-06T19:45:07;6.77;;;2.70;;
20935;SDS011;10627;54.514;18.532;2023-04-06T19:50:08;5.57;;;2.20;;
20935;SDS011;10627;54.514;18.532;2023-04-06T19:55:10;4.50;;;2.63;;
20935;SDS011;10627;54.514;18.532;2023-04-06T20:00:11;6.80;;;2.27;;
20935;SDS011;10627;54.514;18.532;2023-04-06T20:05:13;2.80;;;2.30;;
20935;SDS011;10627;54.514;18.532;2023-04-06T20:10:14;3.50;;;2.47;;
20935;SDS011;10627;54.514;18.532;2023-04-06T20:15:16;4.13;;;2.17;;
20935;SDS011;10627;54.514;18.532;2023-04-06T20:20:18;5.63;;;2.33;;
20935;SDS011;10627;54.514;18.532;2023-04-06T20:25:19;3.23;;;2.30;;
20935;SDS011;10627;54.514;18.532;2023-04-06T20:30:24;6.47;;;2.80;;
20935;SDS011;10627;54.514;18.532;2023-04-06T20:35:26;4.27;;;2.37;;
20935;SDS011;10627;54.514;18.532;2023-04-06T20:40:27;3.67;;;1.93;;
20935;SDS011;10627;54.514;18.532;2023-04-06T20:45:29;7.07;;;2.43;;
20935;SDS011;10627;54.514;18.532;2023-04-06T20:50:30;5.50;;;2.70;;
20935;SDS011;10627;54.514;18.532;2023-04-06T20:55:31;3.93;;;2.67;;
20935;SDS011;10627;54.514;18.532;2023-04-06T21:00:33;4.53;;;2.47;;
20935;SDS011;10627;54.514;18.532;2023-04-06T21:05:34;10.17;;;3.00;;
20935;SDS011;10627;54.514;18.532;2023-04-06T21:10:35;5.40;;;2.40;;
20935;SDS011;10627;54.514;18.532;2023-04-06T21:15:39;4.10;;;2.60;;
20935;SDS011;10627;54.514;18.532;2023-04-06T21:20:41;6.03;;;2.90;;
20935;SDS011;10627;54.514;18.532;2023-04-06T21:25:44;4.67;;;2.80;;
20935;SDS011;10627;54.514;18.532;2023-04-06T21:30:44;2.90;;;2.53;;
20935;SDS011;10627;54.514;18.532;2023-04-06T21:35:45;6.33;;;2.57;;
20935;SDS011;10627;54.514;18.532;2023-04-06T21:40:56;4.40;;;2.40;;
20935;SDS011;10627;54.514;18.532;2023-04-06T21:45:57;2.97;;;2.20;;
20935;SDS011;10627;54.514;18.532;2023-04-06T21:50:58;4.53;;;2.43;;
20935;SDS011;10627;54.514;18.532;2023-04-06T21:55:59;6.87;;;2.80;;
20935;SDS011;10627;54.514;18.532;2023-04-06T22:01:00;4.40;;;2.27;;
20935;SDS011;10627;54.514;18.532;2023-04-06T22:06:04;7.93;;;2.53;;
20935;SDS011;10627;54.514;18.532;2023-04-06T22:11:09;6.00;;;2.97;;
20935;SDS011;10627;54.514;18.532;2023-04-06T22:16:10;6.23;;;3.20;;
20935;SDS011;10627;54.514;18.532;2023-04-06T22:21:11;5.90;;;3.20;;
20935;SDS011;10627;54.514;18.532;2023-04-06T22:26:14;9.73;;;4.23;;
20935;SDS011;10627;54.514;18.532;2023-04-06T22:31:15;7.40;;;3.70;;
20935;SDS011;10627;54.514;18.532;2023-04-06T22:36:16;8.77;;;4.13;;
20935;SDS011;10627;54.514;18.532;2023-04-06T22:41:16;9.13;;;4.83;;
20935;SDS011;10627;54.514;18.532;2023-04-06T22:46:17;10.10;;;4.60;;
20935;SDS011;10627;54.514;18.532;2023-04-06T22:51:18;10.87;;;5.33;;
20935;SDS011;10627;54.514;18.532;2023-04-06T22:56:19;9.57;;;4.50;;
20935;SDS011;10627;54.514;18.532;2023-04-06T23:01:21;15.33;;;4.70;;
20935;SDS011;10627;54.514;18.532;2023-04-06T23:06:22;13.07;;;4.83;;
20935;SDS011;10627;54.514;18.532;2023-04-06T23:11:23;11.97;;;5.20;;
20935;SDS011;10627;54.514;18.532;2023-04-06T23:16:24;9.97;;;5.10;;
20935;SDS011;10627;54.514;18.532;2023-04-06T23:21:25;8.93;;;5.10;;
20935;SDS011;10627;54.514;18.532;2023-04-06T23:26:26;8.47;;;6.00;;
20935;SDS011;10627;54.514;18.532;2023-04-06T23:31:26;12.53;;;5.07;;
20935;SDS011;10627;54.514;18.532;2023-04-06T23:36:27;11.40;;;5.83;;
20935;SDS011;10627;54.514;18.532;2023-04-06T23:41:28;13.03;;;6.30;;
20935;SDS011;10627;54.514;18.532;2023-04-06T23:46:29;12.90;;;5.90;;
20935;SDS011;10627;54.514;18.532;2023-04-06T23:51:29;12.37;;;6.90;;
20935;SDS011;10627;54.514;18.532;2023-04-06T23:56:31;15.27;;;7.27;;
